エカテリンブルク の空港の天気 - METARとTAF

コルツォヴォ空港 ( USSS / SVX ) - ロシア エカテリンブルク
飛行場実況気象(Metar)
観測時間08/16 11:30 YEKT (08/16 06:30 UTC)
風向・風速西北西 5m/s
視程10km以上
天気現象
全天の4割程度の雲 雲底高度 1310m
気温20℃
湿度56%
気圧1014hPa
METARUSSS 160630Z 29005MPS 9999 SCT043 20/11 Q1014 R26L/010060 R26R/010060 NOSIG RMK QFE740/0987
過去の天気等 Google飛行場航空写真 Wunderground天気予報

過去48時間のMETAR

飛行場予報(TAF)
発表時間: 8/16 09:53 YEKT (8/16 04:53 UTC)
予報対象時間: 16日11時 YEKT ~ 17日11時 YEKT
風向・風速西 3m/s 瞬間風速 10m/s
視程10km以上
なし
16日15時 YEKT ~ 16日17時 YEKT に徐々に
風向・風速南南西 3m/s 瞬間風速 8m/s
全天の8割程度の積乱雲 雲底高度 610m
16日18時 YEKT ~ 16日20時 YEKT に徐々に
視程6000m
天気現象弱いしゅう雨
TAF USSS 160453Z 1606/1706 28003G10MPS CAVOK
BECMG 1610/1612 21003G08MPS BKN020CB
BECMG 1613/1615 6000 -SHRA